sensor_id;sensor_type;location;lat;lon;timestamp;pressure;altitude;pressure_sealevel;temperature;humidity
73338;BME280;61575;49.908;35.556;2023-05-19T00:02:53;99533.63;;;15.06;50.28
73338;BME280;61575;49.908;35.556;2023-05-19T00:05:57;99549.22;;;15.04;50.39
73338;BME280;61575;49.908;35.556;2023-05-19T00:09:03;99545.38;;;14.92;52.75
73338;BME280;61575;49.908;35.556;2023-05-19T00:12:06;99541.41;;;14.88;51.89
73338;BME280;61575;49.908;35.556;2023-05-19T00:15:09;99548.03;;;14.85;51.71
73338;BME280;61575;49.908;35.556;2023-05-19T00:18:11;99543.22;;;14.81;52.01
73338;BME280;61575;49.908;35.556;2023-05-19T00:21:15;99541.31;;;14.74;52.56
73338;BME280;61575;49.908;35.556;2023-05-19T00:24:17;99551.03;;;14.69;52.94
73338;BME280;61575;49.908;35.556;2023-05-19T00:27:19;99553.69;;;14.62;52.99
73338;BME280;61575;49.908;35.556;2023-05-19T00:30:21;99556.13;;;14.57;53.05
73338;BME280;61575;49.908;35.556;2023-05-19T00:33:23;99560.66;;;14.50;53.77
73338;BME280;61575;49.908;35.556;2023-05-19T00:36:25;99554.72;;;14.40;54.08
73338;BME280;61575;49.908;35.556;2023-05-19T00:39:27;99563.59;;;14.34;54.24
73338;BME280;61575;49.908;35.556;2023-05-19T00:42:29;99566.03;;;14.29;54.76
73338;BME280;61575;49.908;35.556;2023-05-19T00:45:31;99569.53;;;14.23;54.98
73338;BME280;61575;49.908;35.556;2023-05-19T00:48:33;99567.59;;;14.17;55.32
73338;BME280;61575;49.908;35.556;2023-05-19T00:51:35;99555.88;;;14.09;55.75
73338;BME280;61575;49.908;35.556;2023-05-19T00:54:47;99561.19;;;14.03;55.61
73338;BME280;61575;49.908;35.556;2023-05-19T00:57:49;99556.38;;;13.98;56.02
73338;BME280;61575;49.908;35.556;2023-05-19T01:00:52;99551.09;;;13.90;56.76
73338;BME280;61575;49.908;35.556;2023-05-19T01:03:54;99554.38;;;13.86;56.86
73338;BME280;61575;49.908;35.556;2023-05-19T01:06:59;99550.38;;;13.82;56.69
73338;BME280;61575;49.908;35.556;2023-05-19T01:10:02;99550.38;;;13.82;56.24
73338;BME280;61575;49.908;35.556;2023-05-19T01:13:04;99554.38;;;13.86;55.64
73338;BME280;61575;49.908;35.556;2023-05-19T01:16:39;99557.13;;;13.92;54.90
73338;BME280;61575;49.908;35.556;2023-05-19T01:20:12;99554.91;;;13.96;54.54
73338;BME280;61575;49.908;35.556;2023-05-19T01:23:50;99553.28;;;14.01;54.32
73338;BME280;61575;49.908;35.556;2023-05-19T01:27:18;99552.06;;;14.04;54.03
73338;BME280;61575;49.908;35.556;2023-05-19T01:30:29;99553.56;;;14.06;54.00
73338;BME280;61575;49.908;35.556;2023-05-19T01:33:34;99551.06;;;14.05;53.77
73338;BME280;61575;49.908;35.556;2023-05-19T01:36:37;99554.59;;;14.05;54.16
73338;BME280;61575;49.908;35.556;2023-05-19T01:39:43;99550.78;;;14.00;55.18
73338;BME280;61575;49.908;35.556;2023-05-19T01:42:45;99551.56;;;13.94;55.07
73338;BME280;61575;49.908;35.556;2023-05-19T01:45:47;99553.59;;;13.92;54.88
73338;BME280;61575;49.908;35.556;2023-05-19T01:48:51;99550.06;;;13.91;54.72
73338;BME280;61575;49.908;35.556;2023-05-19T01:51:53;99557.72;;;13.88;54.78
73338;BME280;61575;49.908;35.556;2023-05-19T01:54:55;99560.88;;;13.91;54.42
73338;BME280;61575;49.908;35.556;2023-05-19T02:11:06;99558.31;;;14.04;53.80
73338;BME280;61575;49.908;35.556;2023-05-19T02:14:24;99559.34;;;14.03;53.86
73338;BME280;61575;49.908;35.556;2023-05-19T02:17:35;99559.53;;;14.02;54.03
73338;BME280;61575;49.908;35.556;2023-05-19T02:20:38;99564.94;;;14.02;54.00
73338;BME280;61575;49.908;35.556;2023-05-19T02:23:40;99563.72;;;14.04;53.94
73338;BME280;61575;49.908;35.556;2023-05-19T02:26:43;99566.88;;;14.08;54.09
73338;BME280;61575;49.908;35.556;2023-05-19T02:29:45;99566.03;;;14.07;53.92
73338;BME280;61575;49.908;35.556;2023-05-19T02:32:46;99568.16;;;14.12;53.68
73338;BME280;61575;49.908;35.556;2023-05-19T02:35:49;99569.44;;;14.16;54.00
73338;BME280;61575;49.908;35.556;2023-05-19T02:38:51;99563.28;;;14.22;53.40
73338;BME280;61575;49.908;35.556;2023-05-19T02:41:53;99568.09;;;14.27;53.32
73338;BME280;61575;49.908;35.556;2023-05-19T02:44:55;99570.88;;;14.33;53.54
73338;BME280;61575;49.908;35.556;2023-05-19T02:47:58;99570.28;;;14.38;53.38
73338;BME280;61575;49.908;35.556;2023-05-19T02:51:00;99567.22;;;14.41;53.90
73338;BME280;61575;49.908;35.556;2023-05-19T02:54:02;99569.16;;;14.47;53.09
73338;BME280;61575;49.908;35.556;2023-05-19T02:57:04;99576.06;;;14.56;52.68
73338;BME280;61575;49.908;35.556;2023-05-19T03:00:08;99568.88;;;14.63;52.62
73338;BME280;61575;49.908;35.556;2023-05-19T03:03:10;99576.19;;;14.69;53.25
73338;BME280;61575;49.908;35.556;2023-05-19T03:06:12;99578.75;;;14.77;52.55
73338;BME280;61575;49.908;35.556;2023-05-19T03:09:14;99569.03;;;14.83;52.60
73338;BME280;61575;49.908;35.556;2023-05-19T03:12:16;99578.22;;;14.89;52.41
73338;BME280;61575;49.908;35.556;2023-05-19T03:15:18;99579.50;;;14.93;52.52
73338;BME280;61575;49.908;35.556;2023-05-19T03:18:24;99586.19;;;14.97;52.73
73338;BME280;61575;49.908;35.556;2023-05-19T03:21:27;99585.78;;;15.00;52.45
73338;BME280;61575;49.908;35.556;2023-05-19T03:24:29;99584.97;;;14.99;52.43
73338;BME280;61575;49.908;35.556;2023-05-19T03:27:31;99589.38;;;15.07;52.20
73338;BME280;61575;49.908;35.556;2023-05-19T03:30:33;99592.34;;;15.12;52.04
73338;BME280;61575;49.908;35.556;2023-05-19T03:33:41;99601.97;;;15.21;51.94
73338;BME280;61575;49.908;35.556;2023-05-19T03:36:43;99599.75;;;15.31;51.84
73338;BME280;61575;49.908;35.556;2023-05-19T03:39:49;99600.47;;;15.47;51.39
73338;BME280;61575;49.908;35.556;2023-05-19T03:42:52;99601.00;;;15.63;51.21
73338;BME280;61575;49.908;35.556;2023-05-19T03:45:55;99593.81;;;15.84;50.69
73338;BME280;61575;49.908;35.556;2023-05-19T03:49:16;99597.03;;;16.07;50.28
73338;BME280;61575;49.908;35.556;2023-05-19T03:52:36;99594.81;;;16.37;49.76
73338;BME280;61575;49.908;35.556;2023-05-19T03:55:55;99584.44;;;16.67;49.14
73338;BME280;61575;49.908;35.556;2023-05-19T03:58:57;99592.38;;;17.01;48.33
73338;BME280;61575;49.908;35.556;2023-05-19T04:02:00;99591.09;;;17.30;47.65
73338;BME280;61575;49.908;35.556;2023-05-19T04:05:02;99592.50;;;17.66;47.00
73338;BME280;61575;49.908;35.556;2023-05-19T04:08:05;99599.25;;;18.02;46.51
73338;BME280;61575;49.908;35.556;2023-05-19T04:11:07;99590.53;;;18.31;45.76
73338;BME280;61575;49.908;35.556;2023-05-19T04:14:09;99601.22;;;18.64;45.64
73338;BME280;61575;49.908;35.556;2023-05-19T04:17:11;99594.91;;;18.95;45.33
73338;BME280;61575;49.908;35.556;2023-05-19T04:20:13;99595.06;;;19.25;44.64
73338;BME280;61575;49.908;35.556;2023-05-19T04:23:15;99589.28;;;19.58;44.47
73338;BME280;61575;49.908;35.556;2023-05-19T04:26:18;99602.72;;;19.89;42.98
73338;BME280;61575;49.908;35.556;2023-05-19T04:29:22;99596.28;;;20.20;43.04
73338;BME280;61575;49.908;35.556;2023-05-19T04:32:24;99598.63;;;20.47;42.25
73338;BME280;61575;49.908;35.556;2023-05-19T04:35:28;99594.78;;;20.78;42.32
73338;BME280;61575;49.908;35.556;2023-05-19T04:38:33;99594.75;;;21.08;41.17
73338;BME280;61575;49.908;35.556;2023-05-19T04:41:35;99599.13;;;21.32;40.24
73338;BME280;61575;49.908;35.556;2023-05-19T04:44:41;99593.06;;;21.53;38.48
73338;BME280;61575;49.908;35.556;2023-05-19T04:47:43;99604.47;;;21.74;37.75
73338;BME280;61575;49.908;35.556;2023-05-19T04:50:47;99605.94;;;22.05;37.17
73338;BME280;61575;49.908;35.556;2023-05-19T04:53:50;99601.41;;;22.39;36.93
73338;BME280;61575;49.908;35.556;2023-05-19T04:56:53;99595.13;;;22.67;35.62
73338;BME280;61575;49.908;35.556;2023-05-19T04:59:58;99605.34;;;22.88;34.42
73338;BME280;61575;49.908;35.556;2023-05-19T05:03:11;99597.53;;;23.13;34.05
73338;BME280;61575;49.908;35.556;2023-05-19T05:06:15;99597.97;;;23.39;33.60
73338;BME280;61575;49.908;35.556;2023-05-19T05:09:17;99598.75;;;23.56;33.13
73338;BME280;61575;49.908;35.556;2023-05-19T05:12:21;99600.94;;;23.76;32.70
73338;BME280;61575;49.908;35.556;2023-05-19T05:15:23;99600.22;;;24.02;32.41
73338;BME280;61575;49.908;35.556;2023-05-19T05:18:26;99605.38;;;24.21;30.10
73338;BME280;61575;49.908;35.556;2023-05-19T05:21:28;99601.75;;;24.42;31.14
73338;BME280;61575;49.908;35.556;2023-05-19T05:24:30;99604.53;;;24.69;31.08
73338;BME280;61575;49.908;35.556;2023-05-19T05:27:36;99602.03;;;24.99;30.79
73338;BME280;61575;49.908;35.556;2023-05-19T05:30:40;99597.06;;;25.28;30.78
73338;BME280;61575;49.908;35.556;2023-05-19T05:33:43;99604.09;;;25.56;29.69
73338;BME280;61575;49.908;35.556;2023-05-19T05:36:46;99606.94;;;25.72;28.74
73338;BME280;61575;49.908;35.556;2023-05-19T05:39:48;99611.22;;;25.94;28.30
73338;BME280;61575;49.908;35.556;2023-05-19T05:42:51;99613.75;;;26.06;27.34
73338;BME280;61575;49.908;35.556;2023-05-19T05:45:55;99619.31;;;26.21;26.74
73338;BME280;61575;49.908;35.556;2023-05-19T05:48:58;99617.66;;;26.25;26.49
73338;BME280;61575;49.908;35.556;2023-05-19T05:52:02;99615.22;;;26.39;26.23
73338;BME280;61575;49.908;35.556;2023-05-19T05:55:14;99613.38;;;26.55;25.85
73338;BME280;61575;49.908;35.556;2023-05-19T05:58:18;99611.75;;;26.74;25.66
73338;BME280;61575;49.908;35.556;2023-05-19T06:01:23;99612.31;;;26.86;24.96
73338;BME280;61575;49.908;35.556;2023-05-19T06:04:27;99605.69;;;26.92;24.88
73338;BME280;61575;49.908;35.556;2023-05-19T06:07:29;99610.09;;;27.04;25.08
73338;BME280;61575;49.908;35.556;2023-05-19T06:10:31;99609.28;;;27.28;25.03
73338;BME280;61575;49.908;35.556;2023-05-19T06:13:35;99610.94;;;27.30;24.63
73338;BME280;61575;49.908;35.556;2023-05-19T06:16:40;99602.09;;;27.53;25.25
73338;BME280;61575;49.908;35.556;2023-05-19T06:19:43;99620.56;;;27.73;24.67
73338;BME280;61575;49.908;35.556;2023-05-19T06:22:45;99615.22;;;27.97;24.50
73338;BME280;61575;49.908;35.556;2023-05-19T06:25:48;99614.31;;;28.16;24.30
73338;BME280;61575;49.908;35.556;2023-05-19T06:28:50;99620.34;;;28.23;23.92
73338;BME280;61575;49.908;35.556;2023-05-19T06:31:53;99618.13;;;28.36;23.92
73338;BME280;61575;49.908;35.556;2023-05-19T06:34:55;99616.66;;;28.48;24.08
73338;BME280;61575;49.908;35.556;2023-05-19T06:37:58;99617.84;;;28.37;23.17
73338;BME280;61575;49.908;35.556;2023-05-19T06:41:00;99616.75;;;28.33;23.46
73338;BME280;61575;49.908;35.556;2023-05-19T06:44:05;99620.72;;;28.61;23.72
73338;BME280;61575;49.908;35.556;2023-05-19T06:47:08;99616.63;;;28.53;23.81
73338;BME280;61575;49.908;35.556;2023-05-19T06:50:11;99620.09;;;28.74;23.50
73338;BME280;61575;49.908;35.556;2023-05-19T06:53:18;99624.41;;;28.91;23.37
73338;BME280;61575;49.908;35.556;2023-05-19T06:56:20;99618.63;;;28.87;22.49
73338;BME280;61575;49.908;35.556;2023-05-19T06:59:24;99619.84;;;28.71;21.93
73338;BME280;61575;49.908;35.556;2023-05-19T07:02:26;99623.56;;;28.90;22.86
73338;BME280;61575;49.908;35.556;2023-05-19T07:05:29;99616.53;;;29.08;22.56
73338;BME280;61575;49.908;35.556;2023-05-19T07:08:33;99621.56;;;29.01;22.22
73338;BME280;61575;49.908;35.556;2023-05-19T07:11:39;99621.56;;;29.01;21.78
73338;BME280;61575;49.908;35.556;2023-05-19T07:14:43;99625.38;;;29.39;22.28
73338;BME280;61575;49.908;35.556;2023-05-19T07:17:46;99629.34;;;29.62;22.16
73338;BME280;61575;49.908;35.556;2023-05-19T07:20:50;99634.41;;;29.78;22.14
73338;BME280;61575;49.908;35.556;2023-05-19T07:23:54;99617.44;;;29.61;21.16
73338;BME280;61575;49.908;35.556;2023-05-19T07:26:56;99625.72;;;29.90;21.71
73338;BME280;61575;49.908;35.556;2023-05-19T07:29:58;99619.41;;;30.08;21.50
73338;BME280;61575;49.908;35.556;2023-05-19T07:33:00;99619.56;;;30.17;20.42
73338;BME280;61575;49.908;35.556;2023-05-19T07:36:04;99624.53;;;29.96;20.08
73338;BME280;61575;49.908;35.556;2023-05-19T07:39:06;99618.72;;;30.17;20.88
73338;BME280;61575;49.908;35.556;2023-05-19T07:42:08;99623.22;;;30.12;20.45
73338;BME280;61575;49.908;35.556;2023-05-19T07:45:10;99614.94;;;30.31;20.22
73338;BME280;61575;49.908;35.556;2023-05-19T07:48:12;99622.38;;;30.55;20.23
73338;BME280;61575;49.908;35.556;2023-05-19T07:51:14;99619.81;;;30.39;19.70
73338;BME280;61575;49.908;35.556;2023-05-19T07:54:16;99621.63;;;30.49;19.56
73338;BME280;61575;49.908;35.556;2023-05-19T07:57:18;99619.81;;;29.97;19.90
73338;BME280;61575;49.908;35.556;2023-05-19T08:00:21;99614.34;;;29.68;20.00
73338;BME280;61575;49.908;35.556;2023-05-19T08:03:24;99612.03;;;29.99;20.33
73338;BME280;61575;49.908;35.556;2023-05-19T08:06:26;99610.97;;;29.95;20.09
73338;BME280;61575;49.908;35.556;2023-05-19T08:09:30;99616.34;;;30.10;20.35
73338;BME280;61575;49.908;35.556;2023-05-19T08:12:32;99614.19;;;30.26;19.43
73338;BME280;61575;49.908;35.556;2023-05-19T08:15:34;99614.63;;;30.33;18.73
73338;BME280;61575;49.908;35.556;2023-05-19T08:18:36;99623.78;;;30.52;18.94
73338;BME280;61575;49.908;35.556;2023-05-19T08:21:38;99616.91;;;30.50;18.88
73338;BME280;61575;49.908;35.556;2023-05-19T08:24:40;99626.66;;;30.85;18.69
73338;BME280;61575;49.908;35.556;2023-05-19T08:27:44;99613.34;;;31.19;18.45
73338;BME280;61575;49.908;35.556;2023-05-19T08:30:46;99612.19;;;30.88;18.86
73338;BME280;61575;49.908;35.556;2023-05-19T08:33:48;99613.25;;;30.73;19.28
73338;BME280;61575;49.908;35.556;2023-05-19T08:36:50;99610.16;;;30.37;18.85
73338;BME280;61575;49.908;35.556;2023-05-19T08:39:52;99617.13;;;30.53;18.58
73338;BME280;61575;49.908;35.556;2023-05-19T08:42:53;99618.28;;;30.71;18.89
73338;BME280;61575;49.908;35.556;2023-05-19T08:45:58;99616.78;;;30.17;19.29
73338;BME280;61575;49.908;35.556;2023-05-19T08:49:06;99609.06;;;30.14;19.25
73338;BME280;61575;49.908;35.556;2023-05-19T08:55:48;99605.16;;;30.76;19.20
73338;BME280;61575;49.908;35.556;2023-05-19T08:58:55;99608.38;;;30.84;18.36
73338;BME280;61575;49.908;35.556;2023-05-19T09:02:02;99612.84;;;30.42;18.46
73338;BME280;61575;49.908;35.556;2023-05-19T09:05:05;99601.50;;;30.20;18.63
73338;BME280;61575;49.908;35.556;2023-05-19T09:08:08;99606.72;;;30.02;19.13
73338;BME280;61575;49.908;35.556;2023-05-19T09:11:10;99600.03;;;29.85;19.78
73338;BME280;61575;49.908;35.556;2023-05-19T09:14:12;99597.06;;;29.52;19.94
73338;BME280;61575;49.908;35.556;2023-05-19T09:17:14;99604.13;;;29.34;20.47
73338;BME280;61575;49.908;35.556;2023-05-19T09:20:16;99597.75;;;29.05;20.58
73338;BME280;61575;49.908;35.556;2023-05-19T09:23:18;99608.38;;;28.87;20.71
73338;BME280;61575;49.908;35.556;2023-05-19T09:26:21;99602.03;;;28.48;21.11
73338;BME280;61575;49.908;35.556;2023-05-19T09:29:24;99607.13;;;28.15;21.32
73338;BME280;61575;49.908;35.556;2023-05-19T09:32:29;99601.94;;;28.09;21.66
73338;BME280;61575;49.908;35.556;2023-05-19T09:35:33;99608.84;;;28.06;21.69
73338;BME280;61575;49.908;35.556;2023-05-19T09:38:37;99603.34;;;28.01;22.02
73338;BME280;61575;49.908;35.556;2023-05-19T09:41:39;99608.91;;;27.86;22.43
73338;BME280;61575;49.908;35.556;2023-05-19T09:44:41;99599.00;;;27.85;22.12
73338;BME280;61575;49.908;35.556;2023-05-19T09:47:44;99605.59;;;27.89;22.03
73338;BME280;61575;49.908;35.556;2023-05-19T09:50:47;99601.75;;;27.85;22.19
73338;BME280;61575;49.908;35.556;2023-05-19T09:53:51;99599.84;;;27.80;22.15
73338;BME280;61575;49.908;35.556;2023-05-19T09:57:01;99600.66;;;27.66;22.07
73338;BME280;61575;49.908;35.556;2023-05-19T10:00:08;99596.88;;;27.36;21.54
73338;BME280;61575;49.908;35.556;2023-05-19T10:03:13;99598.25;;;27.28;22.04
73338;BME280;61575;49.908;35.556;2023-05-19T10:06:17;99600.75;;;27.20;22.16
73338;BME280;61575;49.908;35.556;2023-05-19T10:09:24;99595.53;;;27.13;22.72
73338;BME280;61575;49.908;35.556;2023-05-19T10:12:26;99602.38;;;27.11;23.42
73338;BME280;61575;49.908;35.556;2023-05-19T10:15:29;99604.59;;;27.04;22.92
73338;BME280;61575;49.908;35.556;2023-05-19T10:18:32;99601.28;;;26.86;23.13
73338;BME280;61575;49.908;35.556;2023-05-19T10:21:34;99602.94;;;26.77;23.47
73338;BME280;61575;49.908;35.556;2023-05-19T10:24:37;99598.50;;;26.66;23.32
73338;BME280;61575;49.908;35.556;2023-05-19T10:27:40;99603.16;;;26.50;23.15
73338;BME280;61575;49.908;35.556;2023-05-19T10:30:45;99599.81;;;26.43;23.30
73338;BME280;61575;49.908;35.556;2023-05-19T10:37:36;99612.44;;;26.24;23.75
73338;BME280;61575;49.908;35.556;2023-05-19T10:44:06;99611.50;;;25.98;24.52
73338;BME280;61575;49.908;35.556;2023-05-19T10:47:10;99604.59;;;25.90;24.59
73338;BME280;61575;49.908;35.556;2023-05-19T10:50:13;99615.78;;;25.79;24.71
73338;BME280;61575;49.908;35.556;2023-05-19T10:53:17;99614.91;;;25.68;24.78
73338;BME280;61575;49.908;35.556;2023-05-19T10:56:30;99619.78;;;25.56;24.94
73338;BME280;61575;49.908;35.556;2023-05-19T10:59:36;99618.09;;;25.50;25.18
73338;BME280;61575;49.908;35.556;2023-05-19T11:02:42;99623.28;;;25.46;25.65
73338;BME280;61575;49.908;35.556;2023-05-19T11:05:45;99624.63;;;25.39;25.61
73338;BME280;61575;49.908;35.556;2023-05-19T11:08:52;99626.91;;;25.20;26.25
73338;BME280;61575;49.908;35.556;2023-05-19T11:11:54;99631.28;;;25.16;25.81
73338;BME280;61575;49.908;35.556;2023-05-19T11:14:57;99629.19;;;24.96;26.02
73338;BME280;61575;49.908;35.556;2023-05-19T11:18:00;99628.31;;;24.85;26.13
73338;BME280;61575;49.908;35.556;2023-05-19T11:21:03;99633.19;;;24.78;26.44
73338;BME280;61575;49.908;35.556;2023-05-19T11:24:07;99629.50;;;24.67;26.45
73338;BME280;61575;49.908;35.556;2023-05-19T11:30:21;99630.03;;;24.64;26.77
73338;BME280;61575;49.908;35.556;2023-05-19T11:33:24;99634.38;;;24.60;26.99
73338;BME280;61575;49.908;35.556;2023-05-19T11:36:30;99629.41;;;24.57;26.93
73338;BME280;61575;49.908;35.556;2023-05-19T11:39:32;99633.81;;;24.58;27.14
73338;BME280;61575;49.908;35.556;2023-05-19T11:42:34;99634.56;;;24.54;27.96
73338;BME280;61575;49.908;35.556;2023-05-19T11:45:37;99637.06;;;24.55;27.52
73338;BME280;61575;49.908;35.556;2023-05-19T11:48:39;99640.88;;;24.54;28.00
73338;BME280;61575;49.908;35.556;2023-05-19T11:51:43;99631.91;;;24.59;27.75
73338;BME280;61575;49.908;35.556;2023-05-19T11:54:47;99629.78;;;24.66;27.99
73338;BME280;61575;49.908;35.556;2023-05-19T11:58:00;99629.31;;;24.74;28.10
73338;BME280;61575;49.908;35.556;2023-05-19T12:01:05;99631.88;;;24.86;28.15
73338;BME280;61575;49.908;35.556;2023-05-19T12:04:07;99635.81;;;25.00;28.21
73338;BME280;61575;49.908;35.556;2023-05-19T12:07:15;99629.06;;;25.13;27.99
73338;BME280;61575;49.908;35.556;2023-05-19T12:10:25;99630.88;;;25.29;27.87
73338;BME280;61575;49.908;35.556;2023-05-19T12:13:29;99616.09;;;25.40;26.96
73338;BME280;61575;49.908;35.556;2023-05-19T12:16:34;99617.53;;;25.48;27.23
73338;BME280;61575;49.908;35.556;2023-05-19T12:19:36;99615.13;;;25.61;27.00
73338;BME280;61575;49.908;35.556;2023-05-19T12:22:38;99603.66;;;25.75;26.39
73338;BME280;61575;49.908;35.556;2023-05-19T12:25:40;99610.84;;;25.81;26.15
73338;BME280;61575;49.908;35.556;2023-05-19T12:28:43;99601.50;;;25.82;25.50
73338;BME280;61575;49.908;35.556;2023-05-19T12:31:45;99598.53;;;25.88;25.68
73338;BME280;61575;49.908;35.556;2023-05-19T12:34:48;99603.22;;;25.93;25.01
73338;BME280;61575;49.908;35.556;2023-05-19T12:37:50;99600.50;;;26.03;24.75
73338;BME280;61575;49.908;35.556;2023-05-19T12:40:52;99598.34;;;26.15;24.70
73338;BME280;61575;49.908;35.556;2023-05-19T12:44:16;99596.56;;;26.56;27.33
73338;BME280;61575;49.908;35.556;2023-05-19T12:47:19;99592.47;;;27.05;24.67
73338;BME280;61575;49.908;35.556;2023-05-19T12:50:21;99589.44;;;27.06;23.84
73338;BME280;61575;49.908;35.556;2023-05-19T12:53:25;99599.38;;;27.33;24.04
73338;BME280;61575;49.908;35.556;2023-05-19T12:56:27;99591.84;;;27.69;23.79
73338;BME280;61575;49.908;35.556;2023-05-19T12:59:32;99594.84;;;27.87;22.78
73338;BME280;61575;49.908;35.556;2023-05-19T13:02:56;99600.28;;;28.08;22.44
73338;BME280;61575;49.908;35.556;2023-05-19T13:05:58;99595.59;;;28.03;22.13
73338;BME280;61575;49.908;35.556;2023-05-19T13:09:00;99592.56;;;28.05;21.41
73338;BME280;61575;49.908;35.556;2023-05-19T13:12:02;99581.38;;;28.30;22.19
73338;BME280;61575;49.908;35.556;2023-05-19T13:15:05;99575.47;;;28.52;21.63
73338;BME280;61575;49.908;35.556;2023-05-19T13:18:12;99576.00;;;28.54;21.22
73338;BME280;61575;49.908;35.556;2023-05-19T13:21:14;99577.75;;;28.40;21.97
73338;BME280;61575;49.908;35.556;2023-05-19T13:24:16;99573.13;;;28.25;21.81
73338;BME280;61575;49.908;35.556;2023-05-19T13:27:18;99573.50;;;28.03;21.29
73338;BME280;61575;49.908;35.556;2023-05-19T13:30:20;99573.56;;;27.93;21.98
73338;BME280;61575;49.908;35.556;2023-05-19T13:33:22;99573.59;;;27.83;21.96
73338;BME280;61575;49.908;35.556;2023-05-19T13:36:24;99570.59;;;27.69;22.19
73338;BME280;61575;49.908;35.556;2023-05-19T13:39:27;99572.78;;;27.77;22.35
73338;BME280;61575;49.908;35.556;2023-05-19T13:42:29;99575.78;;;27.86;21.80
73338;BME280;61575;49.908;35.556;2023-05-19T13:45:32;99563.84;;;28.06;22.25
73338;BME280;61575;49.908;35.556;2023-05-19T13:48:34;99570.69;;;28.18;22.58
73338;BME280;61575;49.908;35.556;2023-05-19T13:51:36;99573.38;;;28.34;22.58
73338;BME280;61575;49.908;35.556;2023-05-19T13:54:38;99578.09;;;28.33;20.92
73338;BME280;61575;49.908;35.556;2023-05-19T13:57:40;99573.56;;;28.47;21.78
73338;BME280;61575;49.908;35.556;2023-05-19T14:00:44;99571.16;;;28.31;21.22
73338;BME280;61575;49.908;35.556;2023-05-19T14:03:46;99572.81;;;28.37;21.73
73338;BME280;61575;49.908;35.556;2023-05-19T14:06:48;99570.56;;;28.44;22.75
73338;BME280;61575;49.908;35.556;2023-05-19T14:09:51;99573.84;;;28.46;21.56
73338;BME280;61575;49.908;35.556;2023-05-19T14:12:53;99562.03;;;28.35;21.44
73338;BME280;61575;49.908;35.556;2023-05-19T14:16:16;99564.81;;;28.35;22.09
73338;BME280;61575;49.908;35.556;2023-05-19T14:19:18;99568.97;;;28.33;21.73
73338;BME280;61575;49.908;35.556;2023-05-19T14:22:20;99568.97;;;28.33;21.35
73338;BME280;61575;49.908;35.556;2023-05-19T14:25:21;99554.09;;;28.18;21.40
73338;BME280;61575;49.908;35.556;2023-05-19T14:28:23;99559.63;;;28.18;21.80
73338;BME280;61575;49.908;35.556;2023-05-19T14:31:25;99563.72;;;28.26;22.03
73338;BME280;61575;49.908;35.556;2023-05-19T14:34:28;99561.19;;;28.40;22.03
73338;BME280;61575;49.908;35.556;2023-05-19T14:37:30;99557.91;;;28.28;21.75
73338;BME280;61575;49.908;35.556;2023-05-19T14:40:35;99559.31;;;28.25;21.94
73338;BME280;61575;49.908;35.556;2023-05-19T14:43:37;99561.56;;;28.18;21.60
73338;BME280;61575;49.908;35.556;2023-05-19T14:46:39;99562.41;;;28.13;21.53
73338;BME280;61575;49.908;35.556;2023-05-19T14:49:41;99565.69;;;28.20;21.15
73338;BME280;61575;49.908;35.556;2023-05-19T14:52:43;99572.59;;;28.23;20.86
73338;BME280;61575;49.908;35.556;2023-05-19T14:55:47;99564.63;;;28.11;20.54
73338;BME280;61575;49.908;35.556;2023-05-19T14:58:52;99563.00;;;28.10;21.09
73338;BME280;61575;49.908;35.556;2023-05-19T15:01:54;99561.63;;;28.08;20.77
73338;BME280;61575;49.908;35.556;2023-05-19T15:04:56;99563.34;;;27.94;21.04
73338;BME280;61575;49.908;35.556;2023-05-19T15:07:57;99573.06;;;27.76;21.04
73338;BME280;61575;49.908;35.556;2023-05-19T15:10:59;99568.38;;;27.76;21.37
73338;BME280;61575;49.908;35.556;2023-05-19T15:14:01;99572.53;;;27.74;21.44
73338;BME280;61575;49.908;35.556;2023-05-19T15:17:03;99574.44;;;27.83;21.55
73338;BME280;61575;49.908;35.556;2023-05-19T15:20:05;99571.91;;;27.92;21.39
73338;BME280;61575;49.908;35.556;2023-05-19T15:23:08;99578.78;;;27.95;21.39
73338;BME280;61575;49.908;35.556;2023-05-19T15:26:09;99570.59;;;27.79;21.42
73338;BME280;61575;49.908;35.556;2023-05-19T15:29:11;99578.06;;;27.64;21.47
73338;BME280;61575;49.908;35.556;2023-05-19T15:32:13;99578.41;;;27.37;22.44
73338;BME280;61575;49.908;35.556;2023-05-19T15:35:15;99581.97;;;27.12;22.48
73338;BME280;61575;49.908;35.556;2023-05-19T15:38:17;99578.69;;;26.89;22.30
73338;BME280;61575;49.908;35.556;2023-05-19T15:41:19;99586.41;;;26.77;23.08
73338;BME280;61575;49.908;35.556;2023-05-19T15:44:22;99585.28;;;26.68;22.99
73338;BME280;61575;49.908;35.556;2023-05-19T15:47:24;99581.97;;;26.51;23.24
73338;BME280;61575;49.908;35.556;2023-05-19T15:50:26;99595.94;;;26.34;23.58
73338;BME280;61575;49.908;35.556;2023-05-19T15:53:28;99593.13;;;26.14;23.85
73338;BME280;61575;49.908;35.556;2023-05-19T15:56:30;99595.31;;;26.07;24.21
73338;BME280;61575;49.908;35.556;2023-05-19T15:59:32;99599.91;;;25.91;24.30
73338;BME280;61575;49.908;35.556;2023-05-19T16:02:33;99597.88;;;25.71;24.86
73338;BME280;61575;49.908;35.556;2023-05-19T16:05:36;99600.56;;;25.61;24.90
73338;BME280;61575;49.908;35.556;2023-05-19T16:08:38;99592.53;;;25.49;25.12
73338;BME280;61575;49.908;35.556;2023-05-19T16:11:40;99606.16;;;25.34;25.45
73338;BME280;61575;49.908;35.556;2023-05-19T16:14:42;99604.16;;;25.24;25.42
73338;BME280;61575;49.908;35.556;2023-05-19T16:17:43;99602.97;;;25.15;25.70
73338;BME280;61575;49.908;35.556;2023-05-19T16:20:45;99604.81;;;25.04;26.12
73338;BME280;61575;49.908;35.556;2023-05-19T16:23:47;99612.41;;;24.92;26.18
73338;BME280;61575;49.908;35.556;2023-05-19T16:26:49;99610.69;;;24.81;26.48
73338;BME280;61575;49.908;35.556;2023-05-19T16:29:54;99616.09;;;24.71;26.87